Aérodrome :
LOGIN :

S'inscrire | Disclaimer

   EN    FR    IT 

 










Légende :    VFR   VFR Marginal   IFR   IFR Intensif   IFR Très Intensif
Visi : 
Plafond : 
>= 8 km
>= 3000ft
5 à 8 km
1000 à 3000 ft
1500m à 5 km
500 à 1000 ft
800 à 1500m
200 à 500 ft
< 800m
< 200 ft
Symboles :   Orages  Brouillard  Fortes neiges  Fortes précipitations  Vent > 20 kt
SIGMETs :   Divers  Orages  Givrage  Turbulence  Onde Orograph.  Cendres Volcan.







- Altitude de l'aérodrome : 348 ft
- Code IATA : STN
- Voir les cartes d'approche


EGSS - London Stansted

DERNIER METAR :
  • 190320Z AUTO 27006KT 9999 NCD 12/10 Q1013

METARs EXPIRÉS :
  • 190250Z AUTO 27008KT 9999 NCD 12/10 Q1012
  • 190220Z AUTO 27006KT 9999 FEW020 SCT037 12/10 Q1012
  • 190150Z AUTO 28008KT 9999 FEW031 SCT038 13/11 Q1012
  • 190120Z AUTO 27011KT 9999 -RA BKN016 BKN025 OVC038 13/11 Q1011
  • 190050Z AUTO 26009KT 9999 SCT020 BKN027 13/11 Q1011

TAF TAF EGSS
Valide du 19 à 00h jusqu'au 20 à 06h UTC


182257Z 1900/2006 26012KT 9999 SCT025
PROB30
TEMPO 1900/1902 7000 SHRA
TEMPO 1908/1919 27017G27KT
ATIS : +44 1279 669 325
Pas de NOTAMs connus pour ce terrain.



MET'MAP, la Météo Aéronautique d'un coup d'oeil ! - Copyright ORBIFLY Décembre 2007 - Disclaimer

ORBIFLY MET'MAP TEAM :

Programmation & Développement : Alexandra Zaïnal
Conception & Développement : Baudouin d'Aumeries
Co-Programmation & Développement : Marc-Olivier Méhu
Soutien technique & logistique : Manuel Goepfert

Contact : metmap@orbifly.com




SOURCES & CREDITS :

   NOAA